createdAt,value
2022-07-30T00:00:53.063Z,5.57
2022-07-30T00:03:54.754Z,5.63
2022-07-30T00:06:56.367Z,5.77
2022-07-30T00:09:57.961Z,5.47
2022-07-30T00:12:59.759Z,5.60
2022-07-30T00:16:01.450Z,5.57
2022-07-30T00:19:03.856Z,5.53
2022-07-30T00:22:05.533Z,5.43
2022-07-30T00:25:07.360Z,5.13
2022-07-30T00:28:09.120Z,5.17
2022-07-30T00:31:10.931Z,5.60
2022-07-30T00:34:15.230Z,5.23
2022-07-30T00:37:17.043Z,5.70
2022-07-30T00:40:18.796Z,5.60
2022-07-30T00:43:20.434Z,5.83
2022-07-30T00:46:22.128Z,5.53
2022-07-30T00:49:24.274Z,5.50
2022-07-30T00:52:25.912Z,6.00
2022-07-30T00:55:27.611Z,5.40
2022-07-30T00:58:29.658Z,5.40
2022-07-30T01:01:34.378Z,5.90
2022-07-30T01:04:36.029Z,6.10
2022-07-30T01:07:38.050Z,5.80
2022-07-30T01:10:40.101Z,5.77
2022-07-30T01:13:41.849Z,5.57
2022-07-30T01:16:43.660Z,5.80
2022-07-30T01:19:48.703Z,5.43
2022-07-30T01:22:50.413Z,6.23
2022-07-30T01:26:03.341Z,5.67
2022-07-30T01:29:05.887Z,5.87
2022-07-30T01:32:09.025Z,6.27
2022-07-30T01:35:11.772Z,6.30
2022-07-30T01:38:14.191Z,5.93
2022-07-30T01:41:16.100Z,6.13
2022-07-30T01:44:23.982Z,6.00
2022-07-30T01:47:28.041Z,6.00
2022-07-30T01:50:30.750Z,6.43
2022-07-30T01:53:34.160Z,5.70
2022-07-30T01:56:37.172Z,6.80
2022-07-30T01:59:41.576Z,6.77
2022-07-30T02:02:43.488Z,6.40
2022-07-30T02:05:48.239Z,6.43
2022-07-30T02:08:49.820Z,6.20
2022-07-30T02:12:12.975Z,6.53
2022-07-30T02:15:26.885Z,6.67
2022-07-30T02:18:49.118Z,6.67
2022-07-30T02:22:12.852Z,6.63
2022-07-30T02:25:21.052Z,6.87
2022-07-30T02:28:23.365Z,6.80
2022-07-30T02:31:27.029Z,6.53
2022-07-30T02:34:32.874Z,6.83
2022-07-30T02:37:43.177Z,7.03
2022-07-30T02:40:46.365Z,6.83
2022-07-30T02:43:49.912Z,6.87
2022-07-30T02:46:54.618Z,6.60
2022-07-30T02:50:06.900Z,6.47
2022-07-30T02:53:12.918Z,6.47
2022-07-30T02:56:16.094Z,6.13
2022-07-30T02:59:19.601Z,6.93
2022-07-30T03:02:29.725Z,6.50
2022-07-30T03:05:33.591Z,7.00
2022-07-30T03:08:35.593Z,6.50
2022-07-30T03:11:37.479Z,6.63
2022-07-30T03:14:39.342Z,6.53
2022-07-30T03:17:43.793Z,6.40
2022-07-30T03:20:47.139Z,6.90
2022-07-30T03:23:52.104Z,7.13
2022-07-30T03:26:56.869Z,6.60
2022-07-30T03:29:59.230Z,6.97
2022-07-30T03:33:01.228Z,6.70
2022-07-30T03:36:03.818Z,7.00
2022-07-30T03:39:07.224Z,7.37
2022-07-30T03:42:09.197Z,7.43
2022-07-30T03:45:14.021Z,7.60
2022-07-30T03:48:15.740Z,8.00
2022-07-30T03:51:21.329Z,8.63
2022-07-30T03:54:23.656Z,9.47
2022-07-30T03:57:40.239Z,8.10
2022-07-30T04:00:46.940Z,8.60
2022-07-30T04:03:48.712Z,7.87
2022-07-30T04:06:50.448Z,7.73
2022-07-30T04:09:54.496Z,7.37
2022-07-30T04:13:14.724Z,7.23
2022-07-30T04:16:39.188Z,7.23
2022-07-30T04:19:44.550Z,7.00
2022-07-30T04:22:46.920Z,7.47
2022-07-30T04:25:48.876Z,7.27
2022-07-30T04:28:51.561Z,7.50
2022-07-30T04:31:54.072Z,6.80
2022-07-30T04:35:13.938Z,7.10
2022-07-30T04:38:46.759Z,7.47
2022-07-30T04:41:50.045Z,7.33
2022-07-30T04:45:11.810Z,7.37
2022-07-30T04:48:26.762Z,7.27
2022-07-30T04:51:35.013Z,6.50
2022-07-30T04:54:53.004Z,7.20
2022-07-30T04:57:55.059Z,7.30
2022-07-30T05:00:57.883Z,8.70
2022-07-30T05:04:04.612Z,8.20
2022-07-30T05:07:06.928Z,11.97
2022-07-30T05:10:09.122Z,10.40
2022-07-30T05:13:14.480Z,9.73
2022-07-30T05:16:17.515Z,9.27
2022-07-30T05:19:19.804Z,9.97
2022-07-30T05:22:22.418Z,9.80
2022-07-30T05:25:24.070Z,9.83
2022-07-30T05:28:28.898Z,7.70
2022-07-30T05:31:34.116Z,7.37
2022-07-30T05:34:38.016Z,7.93
2022-07-30T05:37:40.851Z,7.20
2022-07-30T05:40:42.711Z,7.27
2022-07-30T05:44:04.693Z,6.77
2022-07-30T05:47:06.424Z,7.47
2022-07-30T05:50:09.137Z,7.33
2022-07-30T05:53:10.972Z,7.20
2022-07-30T05:56:38.089Z,8.13
2022-07-30T05:59:52.127Z,6.70
2022-07-30T06:03:18.102Z,6.50
2022-07-30T06:06:42.745Z,6.50
2022-07-30T06:09:45.191Z,6.53
2022-07-30T06:12:48.049Z,7.22
2022-07-30T06:15:51.881Z,6.35
2022-07-30T06:18:54.622Z,6.43
2022-07-30T06:22:07.413Z,6.60
2022-07-30T06:25:18.503Z,7.65
2022-07-30T06:28:37.061Z,9.20
2022-07-30T06:31:44.786Z,5.97
2022-07-30T06:34:47.563Z,6.20
2022-07-30T06:38:00.766Z,5.35
2022-07-30T06:41:15.853Z,5.72
2022-07-30T06:44:28.273Z,6.13
2022-07-30T06:47:39.103Z,5.65
2022-07-30T06:50:43.880Z,5.97
2022-07-30T06:53:45.972Z,5.25
2022-07-30T06:56:47.547Z,5.63
2022-07-30T06:59:55.766Z,5.60
2022-07-30T07:03:19.323Z,4.82
2022-07-30T07:06:21.616Z,4.78
2022-07-30T07:09:23.439Z,5.70
2022-07-30T07:12:40.817Z,5.35
2022-07-30T07:15:42.697Z,4.88
2022-07-30T07:18:49.316Z,5.10
2022-07-30T07:21:50.966Z,6.00
2022-07-30T07:24:52.740Z,5.15
2022-07-30T07:28:12.395Z,5.40
2022-07-30T07:32:05.366Z,4.85
2022-07-30T07:34:39.902Z,5.07
2022-07-30T07:37:42.550Z,5.15
2022-07-30T07:40:49.874Z,5.50
2022-07-30T07:43:51.786Z,5.25
2022-07-30T07:47:05.244Z,4.70
2022-07-30T07:50:15.144Z,5.03
2022-07-30T07:53:17.288Z,4.90
2022-07-30T07:56:20.410Z,4.40
2022-07-30T07:59:23.802Z,4.50
2022-07-30T08:02:33.286Z,4.22
2022-07-30T08:05:58.087Z,4.00
2022-07-30T08:09:22.663Z,4.35
2022-07-30T08:12:53.560Z,4.43
2022-07-30T08:15:55.325Z,4.00
2022-07-30T08:19:29.567Z,4.20
2022-07-30T08:22:45.751Z,4.78
2022-07-30T08:25:47.478Z,4.18
2022-07-30T08:28:49.149Z,4.00
2022-07-30T08:31:51.128Z,3.97
2022-07-30T08:34:56.323Z,3.90
2022-07-30T08:37:58.238Z,4.00
2022-07-30T08:41:01.409Z,4.15
2022-07-30T08:44:03.106Z,3.70
2022-07-30T08:47:05.719Z,3.92
2022-07-30T08:50:34.246Z,3.88
2022-07-30T08:53:58.733Z,3.40
2022-07-30T08:57:02.918Z,3.90
2022-07-30T09:00:07.816Z,3.60
2022-07-30T09:03:09.502Z,3.38
2022-07-30T09:06:11.406Z,4.00
2022-07-30T09:09:13.164Z,3.80
2022-07-30T09:12:31.251Z,3.92
2022-07-30T09:15:38.434Z,3.45
2022-07-30T09:18:44.526Z,3.58
2022-07-30T09:21:56.887Z,3.90
2022-07-30T09:25:07.811Z,3.63
2022-07-30T09:28:29.196Z,3.55
2022-07-30T09:32:04.639Z,3.80
2022-07-30T09:35:26.756Z,3.97
2022-07-30T09:38:47.915Z,3.90
2022-07-30T09:42:26.660Z,3.92
2022-07-30T09:45:34.684Z,3.95
2022-07-30T09:48:37.222Z,3.42
2022-07-30T09:51:55.671Z,3.70
2022-07-30T09:55:04.371Z,3.83
2022-07-30T09:58:06.490Z,3.75
2022-07-30T10:01:09.981Z,3.47
2022-07-30T10:04:31.773Z,3.90
2022-07-30T10:07:54.497Z,3.65
2022-07-30T10:10:56.240Z,3.78
2022-07-30T10:13:59.432Z,3.75
2022-07-30T10:17:02.980Z,3.60
2022-07-30T10:20:10.157Z,3.75
2022-07-30T10:23:27.173Z,3.38
2022-07-30T10:26:55.258Z,3.60
2022-07-30T10:30:24.900Z,3.33
2022-07-30T10:33:37.541Z,3.58
2022-07-30T10:36:44.758Z,3.28
2022-07-30T10:39:49.612Z,3.67
2022-07-30T10:42:57.078Z,3.30
2022-07-30T10:46:19.997Z,3.58
2022-07-30T10:49:25.878Z,6.65
2022-07-30T10:52:42.919Z,7.10
2022-07-30T10:55:44.525Z,5.75
2022-07-30T10:58:58.208Z,9.40
2022-07-30T11:02:10.280Z,6.10
2022-07-30T11:05:43.738Z,6.88
2022-07-30T11:08:42.767Z,4.50
2022-07-30T11:12:02.037Z,4.40
2022-07-30T11:15:19.174Z,4.60
2022-07-30T11:18:22.076Z,7.57
2022-07-30T11:21:26.795Z,7.32
2022-07-30T11:24:43.975Z,6.90
2022-07-30T11:27:48.895Z,6.25
2022-07-30T11:30:52.320Z,7.53
2022-07-30T11:33:53.987Z,3.72
2022-07-30T11:37:18.685Z,3.90
2022-07-30T11:40:26.402Z,5.00
2022-07-30T11:43:41.622Z,4.15
2022-07-30T11:46:49.390Z,6.50
2022-07-30T11:49:52.702Z,6.88
2022-07-30T11:53:03.881Z,7.10
2022-07-30T11:56:05.872Z,6.80
2022-07-30T11:59:08.248Z,4.57
2022-07-30T12:02:09.864Z,4.78
2022-07-30T12:05:11.615Z,3.90
2022-07-30T12:08:35.384Z,7.22
2022-07-30T12:11:36.841Z,6.25
2022-07-30T12:14:39.086Z,8.13
2022-07-30T12:17:44.892Z,6.20
2022-07-30T12:20:53.241Z,5.40
2022-07-30T12:23:55.848Z,9.05
2022-07-30T12:27:07.920Z,10.70
2022-07-30T12:30:09.738Z,11.43
2022-07-30T12:33:11.548Z,6.32
2022-07-30T12:36:33.491Z,4.40
2022-07-30T12:39:35.103Z,4.30
2022-07-30T12:42:37.417Z,5.13
2022-07-30T12:45:52.139Z,5.20
2022-07-30T12:48:57.771Z,4.80
2022-07-30T12:52:00.369Z,5.80
2022-07-30T12:55:06.839Z,5.47
2022-07-30T12:58:09.084Z,5.60
2022-07-30T13:01:11.399Z,3.65
2022-07-30T13:04:13.464Z,3.50
2022-07-30T13:07:16.753Z,3.50
2022-07-30T13:10:18.925Z,3.42
2022-07-30T13:13:20.634Z,3.83
2022-07-30T13:16:22.246Z,3.55
2022-07-30T13:19:24.375Z,5.20
2022-07-30T13:22:25.993Z,3.50
2022-07-30T13:25:38.790Z,6.30
2022-07-30T13:28:42.264Z,4.20
2022-07-30T13:31:43.846Z,3.75
2022-07-30T13:34:45.535Z,3.33
2022-07-30T13:37:47.201Z,3.45
2022-07-30T13:40:48.890Z,4.53
2022-07-30T13:43:50.510Z,3.88
2022-07-30T13:46:52.197Z,4.07
2022-07-30T13:49:54.110Z,4.45
2022-07-30T13:53:01.815Z,4.28
2022-07-30T13:56:04.217Z,3.72
2022-07-30T13:59:06.321Z,3.60
2022-07-30T14:02:08.162Z,3.72
2022-07-30T14:05:09.745Z,3.25
2022-07-30T14:08:12.096Z,3.40
2022-07-30T14:11:13.919Z,3.97
2022-07-30T14:14:16.069Z,3.80
2022-07-30T14:17:17.850Z,3.90
2022-07-30T14:20:19.797Z,3.75
2022-07-30T14:23:21.428Z,3.70
2022-07-30T14:26:23.016Z,3.47
2022-07-30T14:29:24.897Z,4.05
2022-07-30T14:32:29.782Z,4.32
2022-07-30T14:35:34.236Z,4.10
2022-07-30T14:38:35.869Z,4.35
2022-07-30T14:41:38.665Z,4.50
2022-07-30T14:44:40.352Z,4.30
2022-07-30T14:47:41.967Z,3.72
2022-07-30T14:51:11.726Z,4.10
2022-07-30T14:54:05.194Z,4.50
2022-07-30T14:57:08.750Z,4.20
2022-07-30T15:00:11.919Z,4.22
2022-07-30T15:03:13.583Z,5.00
2022-07-30T15:06:15.678Z,4.07
2022-07-30T15:09:17.282Z,4.55
2022-07-30T15:12:23.515Z,5.22
2022-07-30T15:15:25.974Z,4.13
2022-07-30T15:18:30.731Z,4.70
2022-07-30T15:21:32.525Z,4.60
2022-07-30T15:24:34.160Z,4.88
2022-07-30T15:27:35.895Z,4.45
2022-07-30T15:30:37.585Z,4.30
2022-07-30T15:33:43.197Z,4.10
2022-07-30T15:36:45.068Z,4.72
2022-07-30T15:39:46.671Z,4.50
2022-07-30T15:42:48.304Z,4.28
2022-07-30T15:45:51.270Z,6.10
2022-07-30T15:48:57.770Z,5.00
2022-07-30T15:52:00.150Z,4.75
2022-07-30T15:55:06.460Z,4.90
2022-07-30T15:58:08.297Z,5.32
2022-07-30T16:01:10.673Z,5.00
2022-07-30T16:04:19.381Z,4.82
2022-07-30T16:07:21.760Z,5.32
2022-07-30T16:10:23.536Z,5.57
2022-07-30T16:13:25.146Z,5.72
2022-07-30T16:16:26.782Z,5.15
2022-07-30T16:19:28.738Z,5.40
2022-07-30T16:22:30.365Z,5.57
2022-07-30T16:25:31.997Z,5.50
2022-07-30T16:28:33.670Z,5.78
2022-07-30T16:31:35.926Z,6.10
2022-07-30T16:34:37.622Z,6.45
2022-07-30T16:37:39.371Z,5.60
2022-07-30T16:40:40.993Z,7.10
2022-07-30T16:43:42.603Z,8.95
2022-07-30T16:46:44.220Z,6.78
2022-07-30T16:49:45.959Z,8.63
2022-07-30T16:52:47.585Z,6.22
2022-07-30T16:55:49.339Z,6.80
2022-07-30T16:58:51.037Z,7.47
2022-07-30T17:01:52.672Z,7.53
2022-07-30T17:04:54.417Z,7.85
2022-07-30T17:07:56.180Z,8.93
2022-07-30T17:10:57.914Z,9.73
2022-07-30T17:13:59.664Z,9.73
2022-07-30T17:17:01.400Z,10.52
2022-07-30T17:20:05.479Z,11.70
2022-07-30T17:23:07.841Z,15.43
2022-07-30T17:26:10.788Z,17.33
2022-07-30T17:29:14.930Z,18.75
2022-07-30T17:32:16.773Z,27.70
2022-07-30T17:35:18.469Z,14.32
2022-07-30T17:38:20.111Z,9.75
2022-07-30T17:41:21.746Z,9.63
2022-07-30T17:44:23.509Z,9.65
2022-07-30T17:47:25.186Z,10.15
2022-07-30T17:50:27.117Z,10.57
2022-07-30T17:53:28.741Z,11.52
2022-07-30T17:56:30.413Z,10.50
2022-07-30T17:59:32.139Z,22.83
2022-07-30T18:02:33.772Z,14.38
2022-07-30T18:05:35.501Z,11.77
2022-07-30T18:08:37.099Z,13.38
2022-07-30T18:11:38.738Z,12.25
2022-07-30T18:14:40.392Z,10.35
2022-07-30T18:17:41.977Z,19.73
2022-07-30T18:20:48.425Z,15.40
2022-07-30T18:23:50.290Z,10.35
2022-07-30T18:26:53.406Z,9.05
2022-07-30T18:29:55.040Z,10.40
2022-07-30T18:32:56.725Z,10.38
2022-07-30T18:35:58.696Z,10.23
2022-07-30T18:39:00.486Z,20.95
2022-07-30T18:42:03.661Z,23.45
2022-07-30T18:45:05.915Z,7.38
2022-07-30T18:48:07.670Z,7.57
2022-07-30T18:51:13.669Z,8.35
2022-07-30T18:54:16.059Z,9.02
2022-07-30T18:57:17.746Z,8.33
2022-07-30T19:00:31.091Z,7.95
2022-07-30T19:03:36.799Z,8.30
2022-07-30T19:06:38.539Z,8.63
2022-07-30T19:09:40.377Z,9.17
2022-07-30T19:12:42.012Z,9.53
2022-07-30T19:15:43.835Z,10.10
2022-07-30T19:18:45.577Z,9.00
2022-07-30T19:21:47.318Z,10.57
2022-07-30T19:24:49.006Z,8.00
2022-07-30T19:27:50.630Z,8.83
2022-07-30T19:30:52.318Z,8.23
2022-07-30T19:33:54.016Z,8.87
2022-07-30T19:36:55.814Z,9.17
2022-07-30T19:40:05.274Z,10.90
2022-07-30T19:43:09.419Z,8.87
2022-07-30T19:46:11.906Z,8.57
2022-07-30T19:49:13.773Z,8.70
2022-07-30T19:52:23.555Z,8.73
2022-07-30T19:55:37.636Z,8.40
2022-07-30T19:58:40.025Z,8.80
2022-07-30T20:01:43.110Z,8.30
2022-07-30T20:04:45.285Z,8.60
2022-07-30T20:07:49.009Z,8.47
2022-07-30T20:10:50.823Z,8.67
2022-07-30T20:13:52.433Z,8.57
2022-07-30T20:16:54.312Z,7.70
2022-07-30T20:19:58.009Z,7.43
2022-07-30T20:23:01.238Z,7.50
2022-07-30T20:26:07.505Z,7.30
2022-07-30T20:29:18.970Z,6.87
2022-07-30T20:32:22.951Z,7.30
2022-07-30T20:35:26.593Z,7.23
2022-07-30T20:38:29.564Z,7.30
2022-07-30T20:41:31.402Z,8.37
2022-07-30T20:44:40.739Z,6.90
2022-07-30T20:47:47.198Z,7.37
2022-07-30T20:50:49.669Z,7.17
2022-07-30T20:53:51.287Z,7.30
2022-07-30T20:56:52.955Z,7.27
2022-07-30T20:59:54.595Z,6.63
2022-07-30T21:02:56.687Z,7.27
2022-07-30T21:05:58.325Z,7.70
2022-07-30T21:09:01.549Z,7.47
2022-07-30T21:12:03.513Z,6.97
2022-07-30T21:15:22.943Z,8.00
2022-07-30T21:18:25.584Z,8.50
2022-07-30T21:21:30.562Z,8.60
2022-07-30T21:24:43.577Z,8.93
2022-07-30T21:27:45.188Z,10.10
2022-07-30T21:30:50.001Z,10.37
2022-07-30T21:33:51.607Z,9.53
2022-07-30T21:36:53.321Z,10.60
2022-07-30T21:39:54.978Z,11.90
2022-07-30T21:42:56.634Z,9.43
2022-07-30T21:45:59.192Z,9.97
2022-07-30T21:49:00.976Z,9.80
2022-07-30T21:52:03.263Z,8.30
2022-07-30T21:55:05.365Z,9.53
2022-07-30T21:58:06.980Z,9.80
2022-07-30T22:01:17.348Z,9.27
2022-07-30T22:04:20.021Z,10.57
2022-07-30T22:07:22.061Z,9.53
2022-07-30T22:10:23.896Z,9.17
2022-07-30T22:13:25.686Z,9.60
2022-07-30T22:16:31.516Z,9.20
2022-07-30T22:19:33.161Z,9.40
2022-07-30T22:22:36.324Z,8.93
2022-07-30T22:25:41.560Z,10.03
2022-07-30T22:28:45.858Z,9.80
2022-07-30T22:31:54.329Z,8.97
2022-07-30T22:34:55.981Z,10.20
2022-07-30T22:37:59.074Z,9.27
2022-07-30T22:41:01.518Z,9.20
2022-07-30T22:44:04.091Z,9.40
2022-07-30T22:47:15.702Z,9.20
2022-07-30T22:50:25.987Z,9.70
2022-07-30T22:56:50.477Z,10.70
2022-07-30T22:59:57.579Z,9.40
2022-07-30T23:03:00.468Z,9.47
2022-07-30T23:06:03.813Z,9.20
2022-07-30T23:09:05.410Z,9.70
2022-07-30T23:12:07.613Z,9.07
2022-07-30T23:12:30.760Z,9.37
2022-07-30T23:15:10.565Z,9.07
2022-07-30T23:18:12.135Z,9.47
2022-07-30T23:21:15.035Z,8.90
2022-07-30T23:24:17.734Z,8.67
2022-07-30T23:27:19.842Z,8.37
2022-07-30T23:30:21.587Z,8.83
2022-07-30T23:33:23.158Z,8.10
2022-07-30T23:36:24.787Z,8.57
2022-07-30T23:39:26.511Z,8.77
2022-07-30T23:42:28.178Z,9.40
2022-07-30T23:45:30.147Z,9.43
2022-07-30T23:48:32.140Z,9.00
2022-07-30T23:51:34.127Z,9.53
2022-07-30T23:54:35.714Z,8.10
2022-07-30T23:57:38.024Z,8.43
